createdAt,value
2022-12-12T00:00:16.548Z,30.38
2022-12-12T00:02:44.654Z,33.00
2022-12-12T00:05:15.951Z,32.72
2022-12-12T00:07:44.107Z,38.35
2022-12-12T00:10:14.457Z,30.85
2022-12-12T00:12:42.892Z,39.60
2022-12-12T00:15:11.897Z,39.55
2022-12-12T00:17:40.196Z,34.35
2022-12-12T00:20:08.694Z,36.60
2022-12-12T00:22:41.502Z,34.70
2022-12-12T00:25:10.411Z,38.53
2022-12-12T00:28:02.573Z,41.72
2022-12-12T00:30:30.631Z,36.85
2022-12-12T00:33:01.600Z,35.35
2022-12-12T00:35:29.652Z,33.50
2022-12-12T00:37:57.653Z,36.30
2022-12-12T00:40:25.702Z,37.30
2022-12-12T00:42:53.734Z,27.20
2022-12-12T00:45:23.331Z,32.45
2022-12-12T00:47:51.449Z,38.17
2022-12-12T00:50:19.704Z,37.83
2022-12-12T00:52:47.749Z,34.85
2022-12-12T00:55:15.834Z,33.35
2022-12-12T00:57:44.209Z,26.38
2022-12-12T01:00:15.446Z,27.95
2022-12-12T01:02:45.205Z,31.13
2022-12-12T01:05:14.329Z,25.45
2022-12-12T01:07:42.773Z,34.35
2022-12-12T01:10:11.568Z,35.47
2022-12-12T01:12:39.606Z,31.25
2022-12-12T01:15:09.932Z,31.80
2022-12-12T01:17:38.780Z,33.00
2022-12-12T01:20:17.429Z,33.65
2022-12-12T01:22:45.576Z,27.33
2022-12-12T01:25:19.529Z,30.48
2022-12-12T01:27:49.788Z,35.83
2022-12-12T01:30:20.720Z,42.40
2022-12-12T01:32:48.987Z,33.45
2022-12-12T01:35:18.851Z,30.30
2022-12-12T01:37:46.990Z,36.13
2022-12-12T01:40:20.930Z,34.10
2022-12-12T01:42:49.003Z,34.00
2022-12-12T01:45:54.702Z,33.63
2022-12-12T01:48:26.422Z,33.60
2022-12-12T01:50:57.988Z,33.97
2022-12-12T01:53:29.590Z,37.47
2022-12-12T01:55:58.531Z,33.92
2022-12-12T01:58:27.451Z,34.85
2022-12-12T02:00:55.516Z,33.03
2022-12-12T02:03:23.863Z,28.83
2022-12-12T02:05:54.503Z,36.95
2022-12-12T02:08:25.062Z,33.42
2022-12-12T02:10:53.243Z,31.90
2022-12-12T02:13:25.850Z,32.92
2022-12-12T02:16:04.973Z,30.00
2022-12-12T02:18:43.292Z,40.58
2022-12-12T02:21:20.408Z,36.38
2022-12-12T02:24:27.756Z,32.80
2022-12-12T02:27:19.678Z,34.90
2022-12-12T02:30:21.619Z,37.67
2022-12-12T02:33:10.280Z,31.50
2022-12-12T02:36:00.731Z,37.28
2022-12-12T02:38:32.589Z,36.80
2022-12-12T02:41:19.374Z,37.63
2022-12-12T02:43:56.628Z,37.53
2022-12-12T02:46:29.674Z,32.75
2022-12-12T02:49:04.285Z,43.35
2022-12-12T02:51:34.231Z,33.92
2022-12-12T02:54:04.502Z,35.95
2022-12-12T02:56:48.830Z,32.67
2022-12-12T02:59:22.312Z,38.72
2022-12-12T03:02:18.752Z,35.95
2022-12-12T03:05:19.929Z,31.90
2022-12-12T03:07:58.352Z,30.52
2022-12-12T03:10:38.410Z,33.60
2022-12-12T03:13:16.940Z,35.30
2022-12-12T03:16:02.810Z,37.05
2022-12-12T03:18:38.587Z,34.97
2022-12-12T03:21:17.636Z,32.38
2022-12-12T03:23:48.926Z,38.55
2022-12-12T03:26:54.368Z,32.75
2022-12-12T03:29:26.709Z,35.35
2022-12-12T03:32:02.292Z,34.05
2022-12-12T03:34:35.507Z,35.15
2022-12-12T03:37:29.306Z,34.72
2022-12-12T03:40:01.569Z,36.42
2022-12-12T03:42:35.922Z,32.50
2022-12-12T03:45:08.191Z,38.40
2022-12-12T03:47:42.171Z,33.70
2022-12-12T03:50:16.016Z,32.80
2022-12-12T03:52:50.669Z,34.78
2022-12-12T03:55:26.417Z,32.85
2022-12-12T03:58:00.704Z,36.90
2022-12-12T04:00:33.227Z,32.92
2022-12-12T04:03:22.916Z,33.00
2022-12-12T04:06:17.506Z,33.20
2022-12-12T04:09:02.355Z,36.85
2022-12-12T04:11:53.803Z,38.60
2022-12-12T04:14:32.856Z,33.53
2022-12-12T04:17:03.617Z,39.67
2022-12-12T04:19:55.414Z,31.75
2022-12-12T04:22:39.968Z,39.55
2022-12-12T04:25:19.991Z,30.95
2022-12-12T04:27:54.014Z,33.83
2022-12-12T04:30:22.224Z,31.65
2022-12-12T04:32:53.781Z,36.83
2022-12-12T04:35:26.790Z,36.50
2022-12-12T04:37:57.858Z,35.25
2022-12-12T04:40:31.450Z,36.28
2022-12-12T04:43:03.560Z,38.88
2022-12-12T04:45:35.882Z,32.70
2022-12-12T04:48:06.859Z,31.65
2022-12-12T04:50:36.318Z,41.63
2022-12-12T04:53:17.944Z,32.70
2022-12-12T04:55:51.812Z,33.17
2022-12-12T04:58:20.080Z,39.65
2022-12-12T05:00:53.734Z,38.95
2022-12-12T05:03:30.696Z,36.63
2022-12-12T05:06:02.356Z,39.50
2022-12-12T05:08:34.782Z,35.90
2022-12-12T05:11:06.667Z,36.85
2022-12-12T05:13:37.258Z,36.50
2022-12-12T05:16:13.988Z,34.95
2022-12-12T05:18:42.096Z,34.28
2022-12-12T05:21:10.146Z,35.72
2022-12-12T05:23:38.239Z,39.42
2022-12-12T05:26:17.481Z,33.70
2022-12-12T05:28:45.526Z,32.72
2022-12-12T05:31:13.758Z,35.42
2022-12-12T05:33:41.939Z,42.75
2022-12-12T05:36:10.591Z,39.25
2022-12-12T05:38:38.711Z,36.85
2022-12-12T05:41:07.092Z,39.20
2022-12-12T05:43:45.889Z,39.35
2022-12-12T05:46:14.148Z,30.95
2022-12-12T05:48:43.261Z,34.67
2022-12-12T05:51:11.346Z,38.03
2022-12-12T05:53:43.240Z,35.15
2022-12-12T05:56:20.708Z,40.40
2022-12-12T05:58:50.150Z,33.47
2022-12-12T06:01:18.517Z,35.85
2022-12-12T06:03:46.611Z,39.53
2022-12-12T06:06:14.862Z,34.83
2022-12-12T06:08:45.794Z,41.28
2022-12-12T06:11:34.890Z,33.08
2022-12-12T06:14:05.955Z,35.53
2022-12-12T06:16:34.094Z,33.05
2022-12-12T06:19:02.626Z,36.08
2022-12-12T06:21:31.090Z,38.00
2022-12-12T06:23:59.141Z,37.08
2022-12-12T06:26:27.235Z,35.80
2022-12-12T06:28:56.852Z,39.30
2022-12-12T06:31:26.767Z,35.35
2022-12-12T06:33:54.881Z,35.05
2022-12-12T06:36:25.377Z,33.40
2022-12-12T06:38:54.348Z,30.45
2022-12-12T06:41:24.131Z,29.35
2022-12-12T06:43:52.814Z,33.65
2022-12-12T06:46:23.186Z,35.05
2022-12-12T06:48:55.480Z,38.50
2022-12-12T06:51:26.539Z,35.33
2022-12-12T06:53:54.954Z,31.92
2022-12-12T06:56:25.502Z,33.05
2022-12-12T06:59:32.267Z,37.63
2022-12-12T07:02:01.082Z,37.72
2022-12-12T07:04:31.145Z,37.35
2022-12-12T07:06:59.411Z,42.63
2022-12-12T07:09:28.488Z,36.33
2022-12-12T07:11:56.561Z,28.85
2022-12-12T07:14:24.769Z,30.10
2022-12-12T07:16:52.863Z,33.85
2022-12-12T07:19:22.627Z,31.40
2022-12-12T07:21:52.221Z,38.40
2022-12-12T07:24:20.292Z,32.30
2022-12-12T07:26:48.687Z,33.53
2022-12-12T07:29:16.776Z,35.38
2022-12-12T07:31:45.142Z,36.95
2022-12-12T07:34:16.849Z,35.15
2022-12-12T07:36:44.921Z,36.03
2022-12-12T07:39:20.402Z,29.25
2022-12-12T07:41:48.970Z,36.30
2022-12-12T07:44:22.294Z,31.83
2022-12-12T07:46:50.610Z,35.22
2022-12-12T07:49:18.725Z,36.00
2022-12-12T07:51:49.131Z,28.95
2022-12-12T07:54:19.003Z,33.00
2022-12-12T07:56:47.140Z,31.48
2022-12-12T07:59:15.194Z,26.25
2022-12-12T08:01:44.034Z,29.08
2022-12-12T08:04:12.301Z,29.15
2022-12-12T08:06:40.516Z,32.22
2022-12-12T08:09:08.705Z,38.03
2022-12-12T08:11:44.605Z,37.22
2022-12-12T08:14:14.620Z,34.40
2022-12-12T08:16:48.106Z,31.70
2022-12-12T08:19:16.520Z,28.15
2022-12-12T08:21:45.520Z,29.65
2022-12-12T08:24:15.339Z,30.25
2022-12-12T08:26:46.118Z,30.00
2022-12-12T08:29:14.370Z,31.67
2022-12-12T08:31:44.216Z,32.70
2022-12-12T08:34:12.806Z,30.40
2022-12-12T08:36:41.055Z,29.55
2022-12-12T08:39:12.194Z,29.65
2022-12-12T08:41:43.293Z,33.45
2022-12-12T08:44:14.041Z,24.63
2022-12-12T08:46:42.590Z,32.33
2022-12-12T08:49:11.857Z,29.63
2022-12-12T08:51:40.356Z,33.78
2022-12-12T08:54:09.322Z,27.30
2022-12-12T08:56:37.310Z,32.95
2022-12-12T08:59:05.938Z,30.02
2022-12-12T09:01:45.157Z,31.08
2022-12-12T09:04:13.486Z,35.38
2022-12-12T09:06:41.546Z,31.20
2022-12-12T09:09:09.840Z,35.13
2022-12-12T09:11:38.196Z,25.83
2022-12-12T09:14:06.322Z,32.20
2022-12-12T09:16:34.766Z,26.00
2022-12-12T09:19:04.565Z,27.25
2022-12-12T09:21:33.009Z,33.28
2022-12-12T09:24:02.011Z,30.13
2022-12-12T09:26:30.392Z,35.75
2022-12-12T09:28:58.512Z,36.78
2022-12-12T09:31:26.851Z,27.20
2022-12-12T09:33:55.507Z,29.23
2022-12-12T09:36:24.972Z,29.98
2022-12-12T09:38:53.383Z,29.67
2022-12-12T09:41:27.060Z,32.78
2022-12-12T09:44:04.922Z,26.35
2022-12-12T09:46:38.769Z,34.38
2022-12-12T09:49:15.094Z,30.30
2022-12-12T09:51:48.825Z,33.22
2022-12-12T09:54:20.613Z,28.80
2022-12-12T09:57:02.037Z,27.95
2022-12-12T09:59:38.704Z,37.47
2022-12-12T10:02:27.527Z,29.00
2022-12-12T10:05:02.705Z,29.92
2022-12-12T10:07:40.572Z,31.25
2022-12-12T10:10:20.396Z,26.63
2022-12-12T10:12:49.950Z,28.25
2022-12-12T10:15:28.282Z,32.97
2022-12-12T10:17:57.860Z,29.70
2022-12-12T10:20:28.761Z,30.83
2022-12-12T10:23:05.767Z,26.15
2022-12-12T10:25:42.190Z,25.17
2022-12-12T10:28:13.289Z,38.97
2022-12-12T10:30:56.699Z,29.70
2022-12-12T10:33:35.346Z,27.17
2022-12-12T10:36:13.811Z,29.58
2022-12-12T10:38:59.825Z,24.30
2022-12-12T10:41:37.478Z,23.95
2022-12-12T10:44:12.421Z,26.85
2022-12-12T10:46:49.009Z,27.38
2022-12-12T10:49:20.303Z,30.25
2022-12-12T10:51:49.878Z,31.40
2022-12-12T10:54:22.840Z,27.70
2022-12-12T10:57:16.653Z,23.65
2022-12-12T10:59:49.971Z,25.58
2022-12-12T11:02:31.545Z,29.17
2022-12-12T11:05:03.939Z,23.25
2022-12-12T11:07:33.019Z,29.75
2022-12-12T11:10:31.980Z,24.70
2022-12-12T11:13:17.002Z,22.83
2022-12-12T11:15:50.743Z,28.83
2022-12-12T11:18:21.013Z,22.83
2022-12-12T11:20:52.499Z,26.30
2022-12-12T11:23:23.811Z,26.48
2022-12-12T11:26:01.206Z,20.45
2022-12-12T11:28:33.435Z,23.38
2022-12-12T11:31:07.033Z,28.23
2022-12-12T11:33:39.559Z,29.75
2022-12-12T11:36:08.490Z,20.80
2022-12-12T11:38:40.823Z,19.08
2022-12-12T11:41:12.371Z,21.10
2022-12-12T11:43:56.021Z,24.77
2022-12-12T11:46:27.055Z,22.98
2022-12-12T11:49:03.323Z,25.58
2022-12-12T11:51:34.446Z,23.60
2022-12-12T11:54:08.919Z,22.52
2022-12-12T11:56:46.130Z,22.05
2022-12-12T11:59:33.139Z,22.92
2022-12-12T12:02:21.932Z,20.33
2022-12-12T12:04:54.953Z,17.88
2022-12-12T12:07:44.925Z,18.45
2022-12-12T12:10:24.230Z,19.30
2022-12-12T12:13:05.934Z,18.45
2022-12-12T12:15:39.513Z,17.20
2022-12-12T12:18:28.331Z,18.92
2022-12-12T12:21:15.724Z,22.02
2022-12-12T12:23:54.522Z,21.95
2022-12-12T12:26:33.106Z,20.95
2022-12-12T12:29:20.012Z,17.50
2022-12-12T12:32:00.004Z,17.92
2022-12-12T12:34:38.474Z,15.38
2022-12-12T12:37:21.793Z,15.27
2022-12-12T12:40:03.399Z,14.30
2022-12-12T12:43:05.548Z,15.07
2022-12-12T12:45:45.544Z,16.40
2022-12-12T12:48:20.472Z,14.63
2022-12-12T12:50:53.933Z,15.85
2022-12-12T12:53:29.653Z,14.82
2022-12-12T12:56:02.716Z,17.90
2022-12-12T12:58:35.877Z,18.63
2022-12-12T13:01:10.258Z,17.02
2022-12-12T13:03:46.664Z,11.07
2022-12-12T13:06:22.418Z,11.88
2022-12-12T13:08:59.036Z,8.27
2022-12-12T13:11:32.478Z,8.32
2022-12-12T13:14:11.622Z,10.27
2022-12-12T13:16:42.886Z,10.65
2022-12-12T13:19:16.222Z,11.13
2022-12-12T13:21:55.884Z,12.45
2022-12-12T13:24:32.486Z,13.52
2022-12-12T13:27:06.194Z,9.57
2022-12-12T13:29:48.895Z,11.48
2022-12-12T13:32:51.481Z,14.25
2022-12-12T13:35:27.078Z,23.02
2022-12-12T13:37:56.355Z,21.88
2022-12-12T13:40:29.360Z,18.20
2022-12-12T13:43:07.398Z,25.40
2022-12-12T13:45:44.005Z,20.98
2022-12-12T13:48:46.244Z,27.45
2022-12-12T13:51:48.502Z,24.42
2022-12-12T13:54:50.129Z,25.15
2022-12-12T13:57:32.072Z,23.63
2022-12-12T14:00:20.380Z,30.20
2022-12-12T14:03:08.069Z,26.30
2022-12-12T14:05:41.430Z,23.98
2022-12-12T14:08:22.931Z,27.75
2022-12-12T14:11:04.838Z,28.05
2022-12-12T14:13:41.506Z,30.95
2022-12-12T14:16:22.064Z,23.48
2022-12-12T14:19:25.960Z,28.90
2022-12-12T14:21:55.770Z,30.65
2022-12-12T14:25:04.849Z,28.13
2022-12-12T14:28:14.592Z,29.50
2022-12-12T14:30:53.378Z,27.73
2022-12-12T14:33:49.220Z,28.23
2022-12-12T14:36:51.205Z,27.90
2022-12-12T14:39:34.644Z,23.23
2022-12-12T14:42:06.177Z,27.80
2022-12-12T14:44:38.638Z,25.02
2022-12-12T14:47:10.524Z,26.73
2022-12-12T14:49:40.196Z,27.52
2022-12-12T14:52:17.782Z,26.02
2022-12-12T14:54:48.419Z,27.20
2022-12-12T14:57:22.208Z,32.65
2022-12-12T14:59:51.657Z,29.95
2022-12-12T15:02:22.230Z,31.70
2022-12-12T15:04:53.162Z,30.02
2022-12-12T15:07:26.709Z,37.15
2022-12-12T15:09:56.772Z,32.80
2022-12-12T15:12:27.583Z,35.17
2022-12-12T15:14:58.374Z,37.40
2022-12-12T15:17:30.042Z,39.05
2022-12-12T15:20:00.974Z,36.85
2022-12-12T15:22:31.784Z,38.67
2022-12-12T15:25:02.997Z,36.95
2022-12-12T15:27:40.194Z,36.80
2022-12-12T15:30:29.864Z,39.33
2022-12-12T15:33:00.354Z,34.47
2022-12-12T15:35:28.737Z,37.00
2022-12-12T15:37:57.314Z,32.42
2022-12-12T15:40:29.710Z,45.95
2022-12-12T15:43:00.607Z,40.53
2022-12-12T15:45:33.481Z,36.97
2022-12-12T15:48:02.379Z,38.42
2022-12-12T15:50:37.497Z,34.28
2022-12-12T15:53:17.706Z,41.13
2022-12-12T15:55:56.041Z,32.92
2022-12-12T15:58:29.511Z,33.22
2022-12-12T16:01:20.333Z,31.67
2022-12-12T16:03:59.745Z,34.50
2022-12-12T16:06:33.848Z,38.72
2022-12-12T16:09:08.689Z,36.50
2022-12-12T16:11:45.283Z,33.72
2022-12-12T16:14:39.154Z,39.60
2022-12-12T16:17:11.893Z,34.92
2022-12-12T16:19:43.404Z,29.52
2022-12-12T16:22:23.098Z,33.25
2022-12-12T16:24:54.045Z,40.03
2022-12-12T16:27:24.305Z,37.10
2022-12-12T16:29:52.583Z,34.35
2022-12-12T16:32:21.587Z,36.13
2022-12-12T16:34:50.143Z,37.08
2022-12-12T16:37:20.082Z,32.60
2022-12-12T16:39:48.564Z,38.42
2022-12-12T16:42:19.739Z,36.33
2022-12-12T16:44:49.300Z,32.33
2022-12-12T16:47:19.331Z,37.72
2022-12-12T16:49:48.950Z,36.40
2022-12-12T16:52:18.997Z,41.78
2022-12-12T16:54:53.251Z,35.30
2022-12-12T16:57:22.064Z,35.47
2022-12-12T16:59:51.565Z,34.10
2022-12-12T17:02:21.888Z,32.30
2022-12-12T17:04:51.544Z,33.03
2022-12-12T17:07:20.227Z,34.78
2022-12-12T17:09:48.764Z,36.20
2022-12-12T17:12:35.275Z,35.67
2022-12-12T17:15:05.204Z,43.33
2022-12-12T17:17:33.488Z,39.72
2022-12-12T17:20:01.866Z,40.85
2022-12-12T17:22:30.559Z,35.55
2022-12-12T17:24:58.906Z,31.80
2022-12-12T17:27:27.606Z,31.30
2022-12-12T17:29:55.745Z,30.50
2022-12-12T17:32:27.440Z,34.42
2022-12-12T17:34:55.522Z,34.42
2022-12-12T17:37:37.277Z,37.35
2022-12-12T17:40:11.344Z,34.10
2022-12-12T17:42:40.514Z,34.25
2022-12-12T17:45:10.370Z,36.28
2022-12-12T17:47:40.056Z,39.47
2022-12-12T17:50:14.940Z,27.50
2022-12-12T17:52:43.494Z,37.47
2022-12-12T17:55:53.746Z,31.40
2022-12-12T17:57:59.895Z,27.60
2022-12-12T18:00:27.947Z,27.92
2022-12-12T18:02:57.679Z,29.02
2022-12-12T18:05:25.726Z,30.58
2022-12-12T18:07:56.093Z,29.58
2022-12-12T18:10:24.249Z,25.15
2022-12-12T18:12:52.343Z,28.40
2022-12-12T18:15:20.528Z,30.17
2022-12-12T18:17:48.757Z,28.00
2022-12-12T18:20:18.205Z,27.88
2022-12-12T18:22:46.561Z,28.45
2022-12-12T18:25:14.691Z,24.65
2022-12-12T18:27:43.055Z,26.85
2022-12-12T18:30:12.806Z,29.77
2022-12-12T18:32:41.316Z,30.98
2022-12-12T18:35:09.962Z,34.25
2022-12-12T18:37:39.383Z,25.73
2022-12-12T18:40:09.047Z,30.23
2022-12-12T18:42:37.197Z,33.10
2022-12-12T18:45:06.189Z,29.15
2022-12-12T18:47:34.229Z,28.10
2022-12-12T18:50:02.437Z,31.20
2022-12-12T18:52:30.591Z,22.92
2022-12-12T18:55:00.333Z,24.80
2022-12-12T18:57:28.723Z,26.45
2022-12-12T18:59:57.296Z,29.63
2022-12-12T19:02:25.501Z,26.17
2022-12-12T19:04:54.053Z,30.73
2022-12-12T19:07:22.464Z,29.23
2022-12-12T19:09:50.602Z,27.55
2022-12-12T19:12:20.241Z,23.20
2022-12-12T19:17:36.801Z,27.23
2022-12-12T19:20:06.013Z,28.15
2022-12-12T19:22:50.251Z,31.50
2022-12-12T19:25:19.399Z,27.35
2022-12-12T19:27:51.723Z,26.60
2022-12-12T19:30:20.924Z,24.38
2022-12-12T19:32:49.849Z,33.63
2022-12-12T19:35:17.993Z,38.72
2022-12-12T19:37:46.301Z,28.75
2022-12-12T19:40:14.878Z,38.63
2022-12-12T19:42:43.282Z,31.60
2022-12-12T19:45:12.946Z,31.85
2022-12-12T19:47:41.935Z,33.13
2022-12-12T19:50:11.295Z,37.38
2022-12-12T19:52:39.671Z,34.85
2022-12-12T19:55:08.549Z,43.47
2022-12-12T19:57:36.603Z,37.33
2022-12-12T20:00:05.755Z,35.65
2022-12-12T20:02:39.124Z,34.78
2022-12-12T20:05:07.844Z,33.28
2022-12-12T20:07:36.297Z,37.05
2022-12-12T20:10:06.204Z,31.13
2022-12-12T20:12:34.503Z,30.88
2022-12-12T20:15:02.747Z,30.05
2022-12-12T20:17:31.553Z,26.60
2022-12-12T20:20:01.406Z,31.33
2022-12-12T20:22:38.746Z,29.45
2022-12-12T20:25:08.163Z,32.25
2022-12-12T20:27:36.555Z,25.13
2022-12-12T20:30:06.635Z,23.52
2022-12-12T20:32:34.799Z,27.58
2022-12-12T20:35:05.123Z,25.00
2022-12-12T20:37:34.535Z,28.55
2022-12-12T20:40:02.894Z,25.48
2022-12-12T20:42:31.085Z,25.48
2022-12-12T20:45:00.630Z,24.73
2022-12-12T20:47:28.829Z,28.40
2022-12-12T20:49:57.456Z,27.35
2022-12-12T20:52:27.532Z,26.20
2022-12-12T20:54:55.927Z,26.08
2022-12-12T20:57:24.269Z,29.70
2022-12-12T20:59:52.633Z,27.95
2022-12-12T21:02:22.320Z,29.50
2022-12-12T21:04:55.130Z,29.38
2022-12-12T21:07:23.309Z,28.65
2022-12-12T21:09:52.904Z,27.30
2022-12-12T21:12:20.914Z,27.50
2022-12-12T21:14:49.486Z,33.80
2022-12-12T21:17:18.173Z,29.52
2022-12-12T21:19:55.410Z,27.58
2022-12-12T21:22:23.828Z,27.58
2022-12-12T21:24:53.271Z,38.58
2022-12-12T21:27:21.691Z,26.42
2022-12-12T21:29:49.907Z,28.15
2022-12-12T21:32:18.511Z,27.25
2022-12-12T21:34:46.580Z,25.83
2022-12-12T21:37:23.951Z,26.90
2022-12-12T21:39:54.715Z,30.95
2022-12-12T21:42:26.469Z,27.88
2022-12-12T21:44:58.226Z,32.38
2022-12-12T21:47:29.180Z,31.95
2022-12-12T21:50:04.064Z,30.20
2022-12-12T21:52:34.921Z,30.00
2022-12-12T21:55:10.462Z,23.88
2022-12-12T21:57:40.172Z,24.75
2022-12-12T22:00:10.701Z,30.55
2022-12-12T22:02:40.653Z,24.48
2022-12-12T22:05:09.842Z,25.13
2022-12-12T22:07:38.065Z,26.80
2022-12-12T22:10:11.062Z,20.48
2022-12-12T22:12:40.128Z,24.67
2022-12-12T22:15:08.902Z,24.77
2022-12-12T22:17:37.001Z,22.30
2022-12-12T22:20:05.665Z,26.88
2022-12-12T22:22:33.826Z,31.35
2022-12-12T22:25:02.077Z,29.88
2022-12-12T22:27:34.409Z,22.80
2022-12-12T22:30:02.600Z,21.33
2022-12-12T22:32:30.786Z,25.45
2022-12-12T22:34:59.461Z,25.13
2022-12-12T22:37:27.554Z,21.60
2022-12-12T22:39:55.901Z,24.80
2022-12-12T22:42:24.236Z,23.85
2022-12-12T22:44:53.836Z,26.10
2022-12-12T22:47:23.763Z,28.25
2022-12-12T22:49:52.691Z,24.55
2022-12-12T22:52:20.767Z,27.42
2022-12-12T22:54:48.926Z,26.52
2022-12-12T22:57:17.365Z,28.38
2022-12-12T22:59:45.675Z,26.27
2022-12-12T23:02:18.883Z,30.83
2022-12-12T23:04:50.037Z,29.55
2022-12-12T23:07:18.219Z,30.70
2022-12-12T23:09:52.630Z,27.45
2022-12-12T23:12:21.645Z,27.92
2022-12-12T23:14:49.711Z,23.20
2022-12-12T23:17:19.370Z,32.40
2022-12-12T23:19:47.789Z,27.42
2022-12-12T23:22:16.194Z,30.48
2022-12-12T23:24:44.274Z,29.25
2022-12-12T23:27:12.469Z,26.75
2022-12-12T23:29:41.176Z,26.73
2022-12-12T23:32:09.409Z,29.05
2022-12-12T23:34:39.280Z,25.02
2022-12-12T23:37:07.385Z,24.67
2022-12-12T23:39:35.826Z,24.15
2022-12-12T23:42:03.991Z,26.10
2022-12-12T23:44:32.427Z,29.02
2022-12-12T23:47:00.485Z,29.27
2022-12-12T23:49:28.925Z,28.15
2022-12-12T23:52:00.491Z,26.85
2022-12-12T23:54:32.036Z,25.75
2022-12-12T23:57:00.764Z,26.20
2022-12-12T23:59:29.789Z,25.27
